createdAt,value
2023-04-27T00:01:49.540Z,0.50
2023-04-27T00:06:43.726Z,0.63
2023-04-27T00:09:13.857Z,0.52
2023-04-27T00:14:10.383Z,0.60
2023-04-27T00:16:37.321Z,0.60
2023-04-27T00:19:04.391Z,0.40
2023-04-27T00:21:35.265Z,0.60
2023-04-27T00:24:02.194Z,0.63
2023-04-27T00:26:31.758Z,0.70
2023-04-27T00:28:59.567Z,0.60
2023-04-27T00:31:26.393Z,0.80
2023-04-27T00:33:53.156Z,0.70
2023-04-27T00:36:21.839Z,0.85
2023-04-27T00:38:53.223Z,0.80
2023-04-27T00:41:19.970Z,0.82
2023-04-27T00:43:47.364Z,1.00
2023-04-27T00:46:15.196Z,1.00
2023-04-27T00:48:42.886Z,0.90
2023-04-27T00:51:11.715Z,0.90
2023-04-27T00:53:39.164Z,0.90
2023-04-27T00:56:07.712Z,1.05
2023-04-27T00:58:34.720Z,1.00
2023-04-27T01:01:04.356Z,1.13
2023-04-27T01:03:33.606Z,1.10
2023-04-27T01:06:01.822Z,1.10
2023-04-27T01:08:29.520Z,1.15
2023-04-27T01:10:56.358Z,1.10
2023-04-27T01:13:23.179Z,1.10
2023-04-27T01:15:49.898Z,1.20
2023-04-27T01:18:16.801Z,1.20
2023-04-27T01:20:46.525Z,1.50
2023-04-27T01:23:16.801Z,1.15
2023-04-27T01:25:44.365Z,1.20
2023-04-27T01:28:11.382Z,1.30
2023-04-27T01:30:38.200Z,1.30
2023-04-27T01:33:05.062Z,1.20
2023-04-27T01:35:32.106Z,1.40
2023-04-27T01:38:00.362Z,1.30
2023-04-27T01:40:27.171Z,1.40
2023-04-27T01:42:53.912Z,1.40
2023-04-27T01:45:20.771Z,1.40
2023-04-27T01:47:47.708Z,1.50
2023-04-27T01:50:14.511Z,1.70
2023-04-27T01:52:43.714Z,2.10
2023-04-27T01:55:11.143Z,2.38
2023-04-27T01:57:38.049Z,2.30
2023-04-27T02:00:05.876Z,2.88
2023-04-27T02:02:47.606Z,2.00
2023-04-27T02:05:14.434Z,1.98
2023-04-27T02:07:41.130Z,1.70
2023-04-27T02:10:08.639Z,1.85
2023-04-27T02:12:35.570Z,1.90
2023-04-27T02:15:03.714Z,1.70
2023-04-27T02:17:33.227Z,1.80
2023-04-27T02:19:59.956Z,1.87
2023-04-27T02:22:27.327Z,2.10
2023-04-27T02:24:54.085Z,2.00
2023-04-27T02:27:22.159Z,1.73
2023-04-27T02:29:50.853Z,1.70
2023-04-27T02:32:18.133Z,1.90
2023-04-27T02:34:45.192Z,1.80
2023-04-27T02:37:12.080Z,2.10
2023-04-27T02:39:38.808Z,2.22
2023-04-27T02:42:06.433Z,2.40
2023-04-27T02:44:33.196Z,2.03
2023-04-27T02:47:00.124Z,2.30
2023-04-27T02:49:26.974Z,2.10
2023-04-27T02:51:53.721Z,1.88
2023-04-27T02:54:20.512Z,1.80
2023-04-27T02:56:47.312Z,3.13
2023-04-27T02:59:14.192Z,1.95
2023-04-27T03:01:41.185Z,2.65
2023-04-27T03:04:08.110Z,3.00
2023-04-27T03:06:34.975Z,3.90
2023-04-27T03:09:02.052Z,4.40
2023-04-27T03:11:28.778Z,4.07
2023-04-27T03:13:56.248Z,3.70
2023-04-27T03:16:23.079Z,3.40
2023-04-27T03:18:49.920Z,3.45
2023-04-27T03:21:17.053Z,3.60
2023-04-27T03:23:43.870Z,3.67
2023-04-27T03:26:12.405Z,4.68
2023-04-27T03:28:42.221Z,3.35
2023-04-27T03:31:13.585Z,3.60
2023-04-27T03:33:40.896Z,2.90
2023-04-27T03:36:08.606Z,2.50
2023-04-27T03:38:35.816Z,2.50
2023-04-27T03:41:03.205Z,1.80
2023-04-27T03:43:29.969Z,1.60
2023-04-27T03:45:57.456Z,1.40
2023-04-27T03:48:24.411Z,1.30
2023-04-27T03:50:53.283Z,1.10
2023-04-27T03:53:21.039Z,3.97
2023-04-27T03:55:48.581Z,1.02
2023-04-27T03:58:17.367Z,1.00
2023-04-27T04:01:02.797Z,1.10
2023-04-27T04:03:29.809Z,1.00
2023-04-27T04:05:56.689Z,1.00
2023-04-27T04:08:23.388Z,1.02
2023-04-27T04:10:50.086Z,1.05
2023-04-27T04:13:16.951Z,1.20
2023-04-27T04:15:44.039Z,1.40
2023-04-27T04:18:10.989Z,1.20
2023-04-27T04:20:37.829Z,0.85
2023-04-27T04:23:04.622Z,0.90
2023-04-27T04:25:32.840Z,1.10
2023-04-27T04:27:59.538Z,1.23
2023-04-27T04:30:26.408Z,1.40
2023-04-27T04:32:53.231Z,1.50
2023-04-27T04:35:20.510Z,1.90
2023-04-27T04:37:49.672Z,2.20
2023-04-27T04:40:19.547Z,2.60
2023-04-27T04:42:46.740Z,2.67
2023-04-27T04:45:14.078Z,2.40
2023-04-27T04:47:41.417Z,2.40
2023-04-27T04:50:11.815Z,1.98
2023-04-27T04:55:06.440Z,1.27
2023-04-27T04:57:33.134Z,1.60
2023-04-27T04:59:59.918Z,1.88
2023-04-27T05:02:27.052Z,2.75
2023-04-27T05:04:54.233Z,2.90
2023-04-27T05:07:24.719Z,3.00
2023-04-27T05:09:52.290Z,3.10
2023-04-27T05:12:19.088Z,3.40
2023-04-27T05:14:46.002Z,3.30
2023-04-27T05:17:12.743Z,2.28
2023-04-27T05:19:39.673Z,1.70
2023-04-27T05:22:06.677Z,1.80
2023-04-27T05:24:33.723Z,2.47
2023-04-27T05:27:03.519Z,1.80
2023-04-27T05:29:30.525Z,1.67
2023-04-27T05:32:00.520Z,1.70
2023-04-27T05:34:27.548Z,1.40
2023-04-27T05:36:54.421Z,1.52
2023-04-27T05:39:21.323Z,1.65
2023-04-27T05:41:48.037Z,1.40
2023-04-27T05:44:15.273Z,1.48
2023-04-27T05:46:42.056Z,1.30
2023-04-27T05:49:08.813Z,1.60
2023-04-27T05:51:35.770Z,1.40
2023-04-27T05:54:02.645Z,1.40
2023-04-27T05:56:29.361Z,3.05
2023-04-27T05:58:56.019Z,2.30
2023-04-27T06:01:23.532Z,3.05
2023-04-27T06:03:50.510Z,2.35
2023-04-27T06:06:17.438Z,2.80
2023-04-27T06:08:47.431Z,2.78
2023-04-27T06:11:16.535Z,2.50
2023-04-27T06:13:46.582Z,2.65
2023-04-27T06:16:14.665Z,3.00
2023-04-27T06:18:42.731Z,2.55
2023-04-27T06:21:12.332Z,2.88
2023-04-27T06:23:43.232Z,3.53
2023-04-27T06:26:10.069Z,3.28
2023-04-27T06:28:36.799Z,3.00
2023-04-27T06:31:04.053Z,2.80
2023-04-27T06:33:32.756Z,2.40
2023-04-27T06:36:02.973Z,2.83
2023-04-27T06:38:32.765Z,2.50
2023-04-27T06:41:01.024Z,1.90
2023-04-27T06:43:28.083Z,2.47
2023-04-27T06:45:57.443Z,2.13
2023-04-27T06:48:26.189Z,2.00
2023-04-27T06:50:55.052Z,1.73
2023-04-27T06:53:24.054Z,2.08
2023-04-27T06:55:51.160Z,2.40
2023-04-27T06:58:17.899Z,1.90
2023-04-27T07:00:46.122Z,1.40
2023-04-27T07:03:13.618Z,1.52
2023-04-27T07:05:42.794Z,1.55
2023-04-27T07:08:09.833Z,2.28
2023-04-27T07:10:40.909Z,2.28
2023-04-27T07:13:09.605Z,2.00
2023-04-27T07:15:37.036Z,1.60
2023-04-27T07:18:04.096Z,1.80
2023-04-27T07:20:31.120Z,1.50
2023-04-27T07:23:02.556Z,1.88
2023-04-27T07:25:29.358Z,2.28
2023-04-27T07:27:56.993Z,2.08
2023-04-27T07:30:31.044Z,2.45
2023-04-27T07:32:58.136Z,2.58
2023-04-27T07:35:25.088Z,2.70
2023-04-27T07:37:52.166Z,2.60
2023-04-27T07:40:27.859Z,1.92
2023-04-27T07:42:57.050Z,2.20
2023-04-27T07:45:34.110Z,1.88
2023-04-27T07:48:02.052Z,1.88
2023-04-27T07:50:36.531Z,1.20
2023-04-27T07:53:09.768Z,1.35
2023-04-27T07:55:36.763Z,1.80
2023-04-27T07:58:06.314Z,1.80
2023-04-27T08:00:33.096Z,1.73
2023-04-27T08:03:02.974Z,2.00
2023-04-27T08:05:35.006Z,1.30
2023-04-27T08:08:02.155Z,1.33
2023-04-27T08:10:34.047Z,1.30
2023-04-27T08:13:00.750Z,1.60
2023-04-27T08:15:27.560Z,1.63
2023-04-27T08:17:58.399Z,1.67
2023-04-27T08:20:26.719Z,1.20
2023-04-27T08:22:53.945Z,1.50
2023-04-27T08:25:26.294Z,1.30
2023-04-27T08:27:55.045Z,1.00
2023-04-27T08:30:21.890Z,1.00
2023-04-27T08:32:51.448Z,1.10
2023-04-27T08:35:18.337Z,1.30
2023-04-27T08:37:45.047Z,1.45
2023-04-27T08:40:12.154Z,1.80
2023-04-27T08:42:54.502Z,2.08
2023-04-27T08:45:25.582Z,2.78
2023-04-27T08:47:54.490Z,1.80
2023-04-27T08:50:24.365Z,1.10
2023-04-27T08:52:53.844Z,0.88
2023-04-27T08:55:22.122Z,1.33
2023-04-27T09:01:15.706Z,1.50
2023-04-27T09:03:45.705Z,1.20
2023-04-27T09:06:16.973Z,1.15
2023-04-27T09:08:48.988Z,1.15
2023-04-27T09:11:38.576Z,1.30
2023-04-27T09:14:24.069Z,1.88
2023-04-27T09:16:59.633Z,1.30
2023-04-27T09:19:29.683Z,1.40
2023-04-27T09:22:16.997Z,1.30
2023-04-27T09:24:56.327Z,1.10
2023-04-27T09:27:23.493Z,1.17
2023-04-27T09:29:50.355Z,1.15
2023-04-27T09:32:19.102Z,1.20
2023-04-27T09:34:47.289Z,1.00
2023-04-27T09:37:14.561Z,1.65
2023-04-27T09:39:42.569Z,1.00
2023-04-27T09:42:12.766Z,0.90
2023-04-27T09:44:45.182Z,0.85
2023-04-27T09:47:13.892Z,0.90
2023-04-27T09:49:41.125Z,0.80
2023-04-27T09:52:07.949Z,0.80
2023-04-27T09:54:42.137Z,0.80
2023-04-27T09:57:40.465Z,0.93
2023-04-27T10:00:29.564Z,0.80
2023-04-27T10:03:07.895Z,1.00
2023-04-27T10:06:11.952Z,0.90
2023-04-27T10:08:43.274Z,0.90
2023-04-27T10:11:17.573Z,0.87
2023-04-27T10:13:55.178Z,1.50
2023-04-27T10:16:22.884Z,1.38
2023-04-27T10:18:54.830Z,1.38
2023-04-27T10:21:22.384Z,1.27
2023-04-27T10:23:51.314Z,1.00
2023-04-27T10:26:25.887Z,1.30
2023-04-27T10:29:09.239Z,1.10
2023-04-27T10:31:43.994Z,1.33
2023-04-27T10:34:15.923Z,1.90
2023-04-27T10:36:42.716Z,1.67
2023-04-27T10:39:25.588Z,1.00
2023-04-27T10:44:37.131Z,1.80
2023-04-27T10:47:19.830Z,0.80
2023-04-27T10:49:48.634Z,0.70
2023-04-27T10:52:15.396Z,1.00
2023-04-27T10:54:46.196Z,1.13
2023-04-27T10:57:17.911Z,0.93
2023-04-27T10:59:53.180Z,1.08
2023-04-27T11:02:28.124Z,1.30
2023-04-27T11:04:56.481Z,1.20
2023-04-27T11:07:27.702Z,1.40
2023-04-27T11:09:55.558Z,1.30
2023-04-27T11:12:22.466Z,1.08
2023-04-27T11:14:49.298Z,1.30
2023-04-27T11:17:16.034Z,1.75
2023-04-27T11:19:49.506Z,1.10
2023-04-27T11:22:19.113Z,0.82
2023-04-27T11:24:48.024Z,0.85
2023-04-27T11:27:14.789Z,0.80
2023-04-27T11:29:41.665Z,1.30
2023-04-27T11:32:08.683Z,1.38
2023-04-27T11:34:38.890Z,1.42
2023-04-27T11:42:19.779Z,0.80
2023-04-27T11:44:55.705Z,0.70
2023-04-27T11:47:29.774Z,0.82
2023-04-27T11:49:59.659Z,0.90
2023-04-27T11:55:16.395Z,0.70
2023-04-27T11:58:02.054Z,0.85
2023-04-27T12:00:40.196Z,0.70
2023-04-27T12:03:15.275Z,1.00
2023-04-27T12:05:56.711Z,0.88
2023-04-27T12:08:34.234Z,0.70
2023-04-27T12:11:15.432Z,0.70
2023-04-27T12:13:52.171Z,0.70
2023-04-27T12:16:22.042Z,0.70
2023-04-27T12:18:51.502Z,0.70
2023-04-27T12:23:51.610Z,0.70
2023-04-27T12:26:28.957Z,0.80
2023-04-27T12:29:03.307Z,0.90
2023-04-27T12:31:41.544Z,0.80
2023-04-27T12:34:11.287Z,0.70
2023-04-27T12:36:40.172Z,0.60
2023-04-27T12:39:29.668Z,0.90
2023-04-27T12:41:58.205Z,0.88
2023-04-27T12:44:29.857Z,1.00
2023-04-27T12:47:02.235Z,0.95
2023-04-27T12:49:29.092Z,0.63
2023-04-27T12:51:58.431Z,0.52
2023-04-27T12:54:25.117Z,0.60
2023-04-27T12:56:52.272Z,0.60
2023-04-27T12:59:19.001Z,0.70
2023-04-27T13:01:48.085Z,0.80
2023-04-27T13:04:22.256Z,0.80
2023-04-27T13:06:51.995Z,0.80
2023-04-27T13:12:25.211Z,0.52
2023-04-27T13:14:52.277Z,0.70
2023-04-27T13:17:19.127Z,0.70
2023-04-27T13:19:46.078Z,0.80
2023-04-27T13:22:13.376Z,0.70
2023-04-27T13:24:40.222Z,0.77
2023-04-27T13:27:07.048Z,0.60
2023-04-27T13:29:37.195Z,0.60
2023-04-27T13:32:04.223Z,0.60
2023-04-27T13:34:31.604Z,0.65
2023-04-27T13:36:58.349Z,0.60
2023-04-27T13:39:30.993Z,0.60
2023-04-27T13:41:57.930Z,0.77
2023-04-27T13:46:54.462Z,0.90
2023-04-27T13:49:24.744Z,0.95
2023-04-27T13:51:53.448Z,1.15
2023-04-27T13:54:21.458Z,0.80
2023-04-27T13:56:51.255Z,1.20
2023-04-27T13:59:17.969Z,1.10
2023-04-27T14:01:47.336Z,0.90
2023-04-27T14:04:17.298Z,0.85
2023-04-27T14:06:46.497Z,1.00
2023-04-27T14:09:16.904Z,0.80
2023-04-27T14:11:55.027Z,0.65
2023-04-27T14:14:28.377Z,0.90
2023-04-27T14:16:57.906Z,1.08
2023-04-27T14:19:25.348Z,0.80
2023-04-27T14:21:57.528Z,0.93
2023-04-27T14:24:24.335Z,0.80
2023-04-27T14:26:51.471Z,0.80
2023-04-27T14:29:18.912Z,0.70
2023-04-27T14:31:46.802Z,0.60
2023-04-27T14:34:18.488Z,0.63
2023-04-27T14:36:47.010Z,0.57
2023-04-27T14:39:13.922Z,0.80
2023-04-27T14:41:40.850Z,0.70
2023-04-27T14:44:08.583Z,0.70
2023-04-27T14:46:35.480Z,0.52
2023-04-27T14:49:05.253Z,0.63
2023-04-27T14:51:32.579Z,0.60
2023-04-27T14:53:59.495Z,0.70
2023-04-27T14:56:26.247Z,0.60
2023-04-27T14:58:54.896Z,0.60
2023-04-27T15:01:22.252Z,1.17
2023-04-27T15:03:52.198Z,0.90
2023-04-27T15:06:19.517Z,1.00
2023-04-27T15:08:46.427Z,1.02
2023-04-27T15:11:13.210Z,1.60
2023-04-27T15:13:40.153Z,1.40
2023-04-27T15:16:07.324Z,1.42
2023-04-27T15:18:35.294Z,1.42
2023-04-27T15:21:02.151Z,1.00
2023-04-27T15:23:29.170Z,1.30
2023-04-27T15:25:57.945Z,1.30
2023-04-27T15:28:27.774Z,1.80
2023-04-27T15:30:54.853Z,1.77
2023-04-27T15:33:25.925Z,0.88
2023-04-27T15:35:56.201Z,1.15
2023-04-27T15:38:22.939Z,0.73
2023-04-27T15:40:49.729Z,0.75
2023-04-27T15:43:21.527Z,0.95
2023-04-27T15:45:49.637Z,1.10
2023-04-27T15:48:16.441Z,1.42
2023-04-27T15:50:46.407Z,1.92
2023-04-27T15:53:13.187Z,2.17
2023-04-27T15:55:46.037Z,2.00
2023-04-27T15:58:15.121Z,1.50
2023-04-27T16:00:45.979Z,1.50
2023-04-27T16:03:14.289Z,1.77
2023-04-27T16:05:41.476Z,2.15
2023-04-27T16:08:08.264Z,1.80
2023-04-27T16:10:35.116Z,1.90
2023-04-27T16:13:02.095Z,1.90
2023-04-27T16:15:28.835Z,1.60
2023-04-27T16:17:55.710Z,1.10
2023-04-27T16:20:26.060Z,1.20
2023-04-27T16:22:52.987Z,1.60
2023-04-27T16:25:19.802Z,0.80
2023-04-27T16:27:49.150Z,1.30
2023-04-27T16:30:15.950Z,0.63
2023-04-27T16:32:42.769Z,0.60
2023-04-27T16:35:11.986Z,0.70
2023-04-27T16:37:41.062Z,0.80
2023-04-27T16:40:08.541Z,0.70
2023-04-27T16:42:35.502Z,0.63
2023-04-27T16:45:04.403Z,0.50
2023-04-27T16:47:33.859Z,0.65
2023-04-27T16:50:04.239Z,0.60
2023-04-27T16:52:31.624Z,0.70
2023-04-27T16:54:58.334Z,0.80
2023-04-27T16:57:27.192Z,1.40
2023-04-27T16:59:54.367Z,1.95
2023-04-27T17:02:25.206Z,0.88
2023-04-27T17:04:54.769Z,1.27
2023-04-27T17:07:25.676Z,1.10
2023-04-27T17:10:08.734Z,1.60
2023-04-27T17:12:37.312Z,0.60
2023-04-27T17:15:08.419Z,0.90
2023-04-27T17:17:37.893Z,0.98
2023-04-27T17:20:06.830Z,1.58
2023-04-27T17:22:33.538Z,1.70
2023-04-27T17:25:04.133Z,1.92
2023-04-27T17:27:30.972Z,1.98
2023-04-27T17:30:00.850Z,1.80
2023-04-27T17:32:27.708Z,1.88
2023-04-27T17:34:59.202Z,1.60
2023-04-27T17:37:28.229Z,1.42
2023-04-27T17:39:57.500Z,1.10
2023-04-27T17:42:28.109Z,1.33
2023-04-27T17:44:56.953Z,0.80
2023-04-27T17:47:25.425Z,1.10
2023-04-27T17:49:52.408Z,1.10
2023-04-27T17:52:20.665Z,1.15
2023-04-27T17:55:00.582Z,1.08
2023-04-27T17:58:14.313Z,0.90
2023-04-27T18:00:46.724Z,0.70
2023-04-27T18:03:22.443Z,0.80
2023-04-27T18:05:49.692Z,0.95
2023-04-27T18:08:16.666Z,0.90
2023-04-27T18:10:43.970Z,1.70
2023-04-27T18:13:11.283Z,1.75
2023-04-27T18:15:38.481Z,3.30
2023-04-27T18:18:06.539Z,2.85
2023-04-27T18:20:33.478Z,2.60
2023-04-27T18:23:00.559Z,2.80
2023-04-27T18:25:33.165Z,2.60
2023-04-27T18:28:00.005Z,2.80
2023-04-27T18:30:33.174Z,2.22
2023-04-27T18:35:29.673Z,2.37
2023-04-27T18:37:57.653Z,1.60
2023-04-27T18:40:27.005Z,1.60
2023-04-27T18:42:56.109Z,1.90
2023-04-27T18:45:25.479Z,1.90
2023-04-27T18:47:59.794Z,2.10
2023-04-27T18:50:27.078Z,2.10
2023-04-27T18:52:59.325Z,1.77
2023-04-27T18:55:27.240Z,1.65
2023-04-27T18:58:00.910Z,2.00
2023-04-27T19:00:31.110Z,2.35
2023-04-27T19:02:58.208Z,2.00
2023-04-27T19:05:25.606Z,1.70
2023-04-27T19:07:52.615Z,1.90
2023-04-27T19:10:22.460Z,1.80
2023-04-27T19:12:51.399Z,2.00
2023-04-27T19:15:22.894Z,1.90
2023-04-27T19:17:58.584Z,1.75
2023-04-27T19:20:37.281Z,1.73
2023-04-27T19:23:07.368Z,1.85
2023-04-27T19:25:34.111Z,1.92
2023-04-27T19:28:00.898Z,2.25
2023-04-27T19:30:31.067Z,3.72
2023-04-27T19:35:27.518Z,2.80
2023-04-27T19:37:56.757Z,2.97
2023-04-27T19:40:26.347Z,2.78
2023-04-27T19:43:37.521Z,3.30
2023-04-27T19:46:10.265Z,2.35
2023-04-27T19:48:45.135Z,1.98
2023-04-27T19:51:25.483Z,1.60
2023-04-27T19:53:58.863Z,1.50
2023-04-27T19:56:29.240Z,1.25
2023-04-27T19:59:00.826Z,1.38
2023-04-27T20:01:36.700Z,1.10
2023-04-27T20:04:10.093Z,1.00
2023-04-27T20:06:52.485Z,1.00
2023-04-27T20:09:21.986Z,1.10
2023-04-27T20:11:55.098Z,1.10
2023-04-27T20:14:30.216Z,1.15
2023-04-27T20:17:04.809Z,1.33
2023-04-27T20:19:34.363Z,1.30
2023-04-27T20:22:03.993Z,1.20
2023-04-27T20:24:33.931Z,2.10
2023-04-27T20:27:06.937Z,2.35
2023-04-27T20:29:36.056Z,1.00
2023-04-27T20:32:03.183Z,1.00
2023-04-27T20:34:39.150Z,1.08
2023-04-27T20:37:12.846Z,0.80
2023-04-27T20:40:30.055Z,1.00
2023-04-27T20:43:15.261Z,0.85
2023-04-27T20:45:59.984Z,0.95
2023-04-27T20:48:30.206Z,1.00
2023-04-27T20:51:18.407Z,1.00
2023-04-27T20:54:07.022Z,0.90
2023-04-27T20:56:35.295Z,0.98
2023-04-27T20:59:08.451Z,1.00
2023-04-27T21:01:49.024Z,0.90
2023-04-27T21:04:22.375Z,1.05
2023-04-27T21:06:55.013Z,1.20
2023-04-27T21:09:21.871Z,1.17
2023-04-27T21:11:51.080Z,1.30
2023-04-27T21:14:20.570Z,1.40
2023-04-27T21:16:49.825Z,1.30
2023-04-27T21:19:16.995Z,0.90
2023-04-27T21:21:43.782Z,1.10
2023-04-27T21:24:10.928Z,1.10
2023-04-27T21:26:37.714Z,1.10
2023-04-27T21:29:08.934Z,1.00
2023-04-27T21:31:35.879Z,1.13
2023-04-27T21:34:06.028Z,1.30
2023-04-27T21:36:32.793Z,1.10
2023-04-27T21:38:59.840Z,1.60
2023-04-27T21:41:29.003Z,1.25
2023-04-27T21:43:58.098Z,1.80
2023-04-27T21:46:24.880Z,2.10
2023-04-27T21:48:53.514Z,1.90
2023-04-27T21:51:25.481Z,1.95
2023-04-27T21:53:54.319Z,2.17
2023-04-27T21:56:23.707Z,2.00
2023-04-27T21:58:52.032Z,1.57
2023-04-27T22:01:19.151Z,1.58
2023-04-27T22:03:46.098Z,1.60
2023-04-27T22:06:12.840Z,1.50
2023-04-27T22:08:39.540Z,1.60
2023-04-27T22:11:06.377Z,1.60
2023-04-27T22:13:33.339Z,1.30
2023-04-27T22:16:00.275Z,1.08
2023-04-27T22:18:27.036Z,1.35
2023-04-27T22:20:58.217Z,1.20
2023-04-27T22:23:29.929Z,1.20
2023-04-27T22:25:56.672Z,1.45
2023-04-27T22:28:23.429Z,1.40
2023-04-27T22:30:55.390Z,1.30
2023-04-27T22:33:22.194Z,1.27
2023-04-27T22:35:51.368Z,1.10
2023-04-27T22:38:22.640Z,1.17
2023-04-27T22:40:49.574Z,1.13
2023-04-27T22:43:16.347Z,0.90
2023-04-27T22:45:45.503Z,1.20
2023-04-27T22:48:12.988Z,1.13
2023-04-27T22:50:39.808Z,1.30
2023-04-27T22:53:06.756Z,1.10
2023-04-27T22:55:33.605Z,1.25
2023-04-27T22:58:11.913Z,1.40
2023-04-27T23:00:45.499Z,1.30
2023-04-27T23:03:36.682Z,1.48
2023-04-27T23:06:28.518Z,1.52
2023-04-27T23:08:56.619Z,1.58
2023-04-27T23:11:23.885Z,1.50
2023-04-27T23:13:59.622Z,1.67
2023-04-27T23:16:27.827Z,1.40
2023-04-27T23:22:09.729Z,1.80
2023-04-27T23:24:36.640Z,1.65
2023-04-27T23:27:25.100Z,1.20
2023-04-27T23:30:20.532Z,1.17
2023-04-27T23:32:47.223Z,1.00
2023-04-27T23:35:16.902Z,1.10
2023-04-27T23:37:45.788Z,0.93
2023-04-27T23:40:12.772Z,1.05
2023-04-27T23:42:39.576Z,1.08
2023-04-27T23:45:06.788Z,1.30
2023-04-27T23:47:33.998Z,1.30
2023-04-27T23:50:02.339Z,1.10
2023-04-27T23:52:29.363Z,1.15
2023-04-27T23:54:57.754Z,1.00
2023-04-27T23:57:24.555Z,1.15
2023-04-27T23:59:51.300Z,1.30
